Alderley Edge, United Kingdom
Current Conditions -  °F | °C
As of 7:20 AM on Saturday 29 Nov 2014 (Local Time) from EGCC Reporting Station
Light Rain Light Rain  
Wind Chill: 10°   Ceiling: Unl
Heat Index: 10°   Visibility: 5mi
Dew Point:   Wind: 3mph
Humidity: 94%   Direction: NA
Pressure: 29.83"   Gusts: NA
Location:  53.3°N, 2.24°W
Report Text: EGCC 290720Z VRB03KT 8000 -RA FEW012 10/09 Q1010 NOSIG
Loading
Personal Weather Stations






























Interactive Weather Map New forecast layout! Learn more

10-Day Weather Forecast

Advertisements
Track Severe Weather on mobile